To NAV CANADA Home Page Login to a new session Search on AWWS site Feedback and Comments Disclaimer Vers la page française équivalente Tips FAQ What's new on the site To the Forecasts and Observations / NOTAM section To "File a Flight Plan" website Publications and other links Update of the User's profile FIC Telephone Numbers My Weather Data Folder Route Weather Data Regional Weather Data Local Weather Data To the Forecasts and Observations / NOTAM section
Request Generated 12/10/2016 at 16:33:26 UTC . Weather information available at that time is displayed.

METAR/TAF

QUEBEC/JEAN LESAGE INTL/QC    

METAR CYQB 101600Z 31011KT 30SM FEW037 BKN180 M09/M17 A3024 RMK
SC2AS5 SLP250=
METAR CYQB 101500Z 23010KT 30SM FEW037 BKN200 M12/M16 A3025 RMK
SC1CI6 CONTRAILS SLP253=
METAR CYQB 101400Z 21006KT 180V250 30SM FEW037 BKN200 M13/M18 A3024
RMK SC1CI6 SLP249=

TAF CYQB 101144Z 1012/1112 24010KT P6SM FEW030
BECMG 1016/1018 29015KT BKN030
FM102300 24005KT P6SM SCT030 BKN150
FM110500 24005KT P6SM BKN030 OVC120
RMK NXT FCST BY 101800Z=
Your time UTC time
Weather data provided by Environment Canada and NAV CANADA